Timeline UpdatesTrip UpdatesNews PostsPvt PostsTravel TipsAdmin PostsConv PostsFollowed PostsChat RequestsBlog PostsPNR Posts

Disclaimer
Search
 
 
Sun Aug 24, 2014 00:29:36 ISTHomeTrainsΣChainsAtlasPNRForumGalleryNewsFAQTripsMembersLoginFeedback
Latest...
Will stop at all stations between Chhapra-Sonpur from 23/8/14-27/8/14 #1193871
Thu Aug 21, 2014 (10:02PM)
⇐ Return Journey: Train# 13019

13020/Bagh Express

Apr 15 2014 (7:52AM)
Change Departure Station:
Change Arrival Station:
Post a Train Travel TipPost a Train Travel Tip **new
Post a Comment/Question/Picture/VideoPost a Comment/Question/Picture/Video
Pantry/Catering
✕ NO Pantry Car
✓ Catering Avbl
Loco/Rake Reversals
RMU/Rampur Junction (3); LJN/Lucknow Junction (6);
RSA - Rake Sharing
Rake/Coach Composition
LOCO-SLR-GS-GS-A1-B1-S7-S6-S5-S4-S3-S2-S1-GS-GS-GS-SLR
Loco
IZN WDP-4D (KGM-BJU); HWH WAP-4 (BJU-HWH)
News    PNR    Forum    Time-Table    Availability    Fare Chart    Map    Arr/Dep History    Trips    Gallery    ΣChains    X/O    Timeline    
Travel Time: 8h 50m    11 halts    Distance: 268 km    Avg Speed: 30 km/hr
Type: Mail/Express
Zone: ER/Eastern
Departs @ 20:30
Platform# 2
SMTWTFS
Muzaffarpur Junction/MFP 
Arrives @ 05:20 +1 night
Platform# ???
SMTWTFS
Madhupur Junction/MDP 

11 halts. 51 intermediate Stations between Muzaffarpur Junction and Madhupur Junction

Show ALL intermediate Stations  Show Old Time-Table

#CodeStation NameX/OArrivesAvgDepartsAvgHaltPFDay#KmSpeedElevZoneAddress
1KGMKathgodam (3)  -21:55-11-956.422520mNERKathgodam, Uttarakhand
2HDWHaldwani (3)  22:11-22:13-2m11-950.531443mNERHaldwani, Uttarakhand
3LKULal Kuan Junction (4)  22:45-22:50-5m--1-934.151262mNERLalkuan, Uttarakhand
4HLDDHaldi Road  22:59-23:01-2m--1-926.560236mNERNH 87, Uttarakhand
5RUPCRudrapur City (2)  23:15-23:17-2m--1-912.564208mNERUdham Singh Nagar, Uttarakhand
6BLQRBilaspur Road (1)  23:34-23:36-2m11-894.537196mNERRampur, Uttar Pradesh
7RMURampur Junction (3)X00:20-00:45-25m--2-867.671190mNRRampur, Uttar Pradesh
8BEBareilly Junction (4)X  01:38-01:46-8m12-804.664174mNRBareilly, Uttar Pradesh
9SPNShahjahanpur Junction (3)  02:52-02:57-5m--2-734.155156mNRShahjahanpur, Uttar Pradesh
10ROZARoza Junction (4)X  03:05-03:07-2m--2-726.869156mNRShahjahanpur, Uttar Pradesh
11HRIHardoi (5)X03:55-03:57-2m32-671.251146mNRHardoi, Uttar Pradesh
12LJNLucknow Junction (6)X05:55-06:20-25m12-570.114126mNERLucknow, Uttar Pradesh
13BNZBadshahnagar (2)  07:08-07:10-2m12-559.037116mNERLucknow, Uttar Pradesh
14BBKBarabanki Junction (4)X  07:50-07:54-4m--2-534.465122mNRPin-225001, Uttar Pradesh
15JLDJarwal Road (2)  08:34-08:36-2m--2-491.271112mNERBehraich, Uttar Pradesh
16GDGonda Junction (3)X  09:15-09:25-10m22-445.176110mNERGonda 271001, Uttar Pradesh
17BSTBasti (4)  10:35-10:40-5m--2-356.78190mNERBasti 272001, Uttar Pradesh
18KLDKhalilabad (3)X  11:02-11:04-2m--2-327.12786mNERKhalilabad- 272175, Uttar Pradesh
19GKPGorakhpur Junction (10)X  12:20-12:40-20m--2-293.26484mNERGorakhpur 273001, Uttar Pradesh
20CCChauri Chaura (2)  13:03-13:05-2m--2-268.86584mNERGorakhpur- PinCode:- 273201, Uttar Pradesh
21DEOSDeoria Sadar (3)  13:28-13:30-2m--2-244.15079mNERDeoria- 274001, Uttar Pradesh
22BTTBhatni Junction (5)  13:55-14:00-5m--2-223.35973mNERDeoria, Uttar Pradesh
23BHTRBhatpar Rani (2)X  14:13-14:15-2m--2-210.56173mNERDeoria, Uttar Pradesh
24BTKBankata (2)  14:23-14:25-2m--2-202.43573mNERDeoria, Uttar Pradesh
25MWMairwa (2)X  14:36-14:38-2m22-195.93173mNERMairwa, Bihar
26ZRDEJiradei (2)X  14:59-15:01-2m--2-184.94469mNERSiwan, Bihar
27SVSiwan Junction (4)X  15:15-15:25-10m--2-174.67170mNERSiwan, Bihar
28DDADuraundha Junction (3)  15:40-15:42-2m--2-156.85464mNERDistt: Siwan, Bihar
29CWChainwa (2)  15:51-15:53-2m--2-148.62463mNERSiwan, Bihar
30EKMAEkma (3)X  16:11-16:13-2m--2-141.32664mNERSaran, Bihar
31DDPDaudpur (2)O  16:33-16:35-2m--2-132.72359mNERChhapra, Bihar
32CPRChhapra Junction (6)  17:25-17:35-10m--2-113.46258mNERDistt: Saran, Bihar
33DGADighwara (2)X  18:05-18:07-2m--2-82.57160mECR06158-281240, Bihar
34NYONayagaon (2)  18:17-18:19-2m--2-70.73453mECRNayagaon Sarai, Bihar
35SEESonpur Junction (4)X  18:39-18:47-8m--2-59.32556mECRSaran, Bihar
36HJPHajipur Junction (3)  19:00-19:02-2m--2-53.87955mECR06224-272230, Bihar
37BNRBhagwanpur (2)  19:17-19:19-2m12-34.26260mECRBhagwanpur, Bihar
38GRLGoraul (2)X  19:27-19:29-2m12-25.93057mECRVAISHALI, Bihar
39MFP»Muzaffarpur Junction (6)»X  20:20-20:30-10m220.07257mECRMuzaffarpur, Bihar
40DOLDholi (2)  20:51-20:53-2m--225.167 ECRDistt. Muzaffarpur, Bihar
41KRBPKhudiram B Pusa  21:05-21:07-2m--238.56352mECRDistt. Samastipur, Bihar
42KPGMKarpurigram (3)X  21:14-21:16-2m--245.91651mECRState Highway 49, Bihar
43SPJSamastipur Junction (9)X  21:40-21:50-10m--252.17055mECRSamastipur, Bihar
44DSSDalsingh Sarai (2)  22:10-22:12-2m2275.360 ECR06278-221238, Bihar
45BCABachwara JunctionO  22:23-22:25-2m--286.31849mECRBegusarai, Bihar
46BJUBarauni Junction (9)23:20-00:10-50m--2102.72849mECRBegusarai, Bihar
47KIULKiul Junction (5)  01:35-01:40-5m--3141.93853mECRDist. Lakhisarai, Bihar
48JAJJhajha (4)X  03:05-03:15-10m--3195.270143mECRJhajha, Bihar
49STLSimultala (2)X  03:31-03:33-2m--3213.966247mERSimultala, Bihar
50JSMEJasidih Junction (5)X  03:56-04:01-5m--3239.322271mERJasidih, Jharkhand
51MDP•Madhupur Junction (4)•  05:20-05:24-4m--3268.463254mER06432-224478, Jharkhand
52VDSVidyasagar (2)X  05:47-05:49-2m23292.645250mERJamtara, Jharkhand
53JMTJamtara (2)  06:13-06:15-2m23310.545201mERJamtara, Jharkhand
54CRJChittaranjan (3)  06:34-06:36-2m23324.839182mERMihijam, Jharkhand
55RNPRRupnarayanpur (3)  06:43-06:45-2m13329.311191mERChittaranjan, West Bengal
56STNSitarampur Junction (5)XO  07:48-07:50-2m33341.113139mERG T Rd Before Asansol, West Bengal
57ASNAsansol Junction (7)  08:30-08:45-15m--3349.872113mERDist - bardhaman, West Bengal
58RNGRaniGanj (4)  09:00-09:02-2m--3368.04092mERRaniganj, West Bengal
59UDLAndal Junction (6)X  09:13-09:15-2m--3375.37386mERAndal, West Bengal
60DGRDurgapur (5)X  09:29-09:31-2m--3392.38571mERDurgapur, West Bengal
61PANPanagarh (4)X  09:42-09:44-2m--3407.96170mERKaksa, West Bengal
62BWNBarddhaman Junction (8)X  10:31-10:36-5m--3455.85934mERDist - Barddhaman, West Bengal
63BDCBandel Junction (7)  11:44-11:49-5m--3523.14614mERdist - HOOGHLY, West Bengal
64HWHKolkata Howrah Junction (23)  12:40--133562.6-10mERHowrah 711101, West Bengal
Scroll to Top
Scroll to Bottom